Time;durP1;ratioP1;P1;durP2;ratioP2;P2;SDS_P1;SDS_P2;PMS_P1;PMS_P2;Temp;Humidity;BMP_temperature;BMP_pressure;BME280_temperature;BME280_humidity;BME280_pressure;Samples;Min_cycle;Max_cycle;Signal;HPM_P1;HPM_P2
2023/08/16 07:23:35;;;;;;;5.97;4.20;;;;;;;-145.79;66.15;77279.78;5282187;28;20732;-75
2023/08/16 07:26:07;;;;;;;4.95;4.10;;;;;;;-145.79;65.72;77284.00;5289683;28;20108;-75
2023/08/16 07:28:38;;;;;;;6.07;4.07;;;;;;;-145.79;66.10;77286.13;5288652;28;20459;-76
2023/08/16 07:31:09;;;;;;;3.88;3.33;;;;;;;-145.79;65.31;77275.53;5281003;28;20021;-77
2023/08/16 07:33:41;;;;;;;3.97;3.17;;;;;;;-145.79;65.35;77262.81;5284598;28;20066;-77
2023/08/16 07:36:12;;;;;;;4.07;3.50;;;;;;;-145.79;64.35;77262.81;5289592;28;20028;-79
2023/08/16 07:38:46;;;;;;;5.47;2.90;;;;;;;-145.79;64.15;77239.50;5290582;28;20543;-78
2023/08/16 07:41:17;;;;;;;4.35;3.30;;;;;;;-145.79;63.41;77241.63;5286441;28;20082;-78
2023/08/16 07:43:49;;;;;;;5.22;3.40;;;;;;;-145.79;63.27;77228.91;5292371;28;20021;-77
2023/08/16 07:46:20;;;;;;;6.97;3.95;;;;;;;-145.79;63.81;77216.19;5279333;28;20100;-78
2023/08/16 07:48:51;;;;;;;3.25;2.65;;;;;;;-145.79;61.71;77211.94;5291691;28;20020;-77
2023/08/16 07:51:23;;;;;;;6.47;3.10;;;;;;;-145.79;61.97;77218.31;5279364;28;20036;-77
2023/08/16 07:53:54;;;;;;;5.65;3.10;;;;;;;-145.79;61.52;77222.53;5283532;28;20140;-77
2023/08/16 07:56:26;;;;;;;5.07;3.20;;;;;;;-145.79;61.85;77207.72;5279258;28;20041;-78
2023/08/16 07:58:57;;;;;;;3.42;2.80;;;;;;;-145.79;61.61;77203.47;5293821;28;20032;-77
2023/08/16 08:01:28;;;;;;;7.07;3.78;;;;;;;-145.79;61.88;77184.41;5285417;28;20020;-77
2023/08/16 08:04:00;;;;;;;4.55;2.70;;;;;;;-145.79;61.32;77195.00;5289956;28;20020;-78
2023/08/16 08:06:31;;;;;;;4.10;2.60;;;;;;;-145.79;61.67;77186.50;5287541;28;20099;-76
2023/08/16 08:09:03;;;;;;;4.35;2.88;;;;;;;-145.79;61.03;77180.16;5287824;28;20434;-76
2023/08/16 08:11:37;;;;;;;4.97;3.05;;;;;;;-145.79;60.91;77184.41;5287668;28;20038;-77
2023/08/16 08:14:08;;;;;;;8.27;2.90;;;;;;;-145.79;60.53;77182.28;5274493;28;20463;-77
2023/08/16 08:16:40;;;;;;;8.43;2.83;;;;;;;-145.79;60.12;77180.16;5284767;28;20029;-77
2023/08/16 08:19:11;;;;;;;5.25;3.05;;;;;;;-145.79;60.14;77190.75;5291165;28;20032;-77
2023/08/16 08:21:46;;;;;;;4.50;2.70;;;;;;;-145.79;60.04;77180.16;5290479;28;20174;-76
2023/08/16 08:24:17;;;;;;;5.15;3.03;;;;;;;-145.79;59.78;77173.78;5278273;28;20028;-76
2023/08/16 08:26:51;;;;;;;4.25;2.85;;;;;;;-145.79;59.57;77178.03;5284036;28;20035;-78
2023/08/16 08:29:25;;;;;;;3.60;2.72;;;;;;;-145.79;59.65;77182.28;5286345;28;20021;-78
2023/08/16 08:31:56;;;;;;;6.68;3.67;;;;;;;-145.79;59.77;77165.31;5281613;28;20022;-78
2023/08/16 08:34:28;;;;;;;6.00;3.25;;;;;;;-145.79;59.60;77156.84;5278952;28;20048;-79
2023/08/16 08:37:00;;;;;;;5.15;3.22;;;;;;;-145.79;59.42;77156.84;5276639;28;20459;-79
2023/08/16 08:39:32;;;;;;;4.82;2.75;;;;;;;-145.79;59.81;77131.41;5272939;28;20336;-79
2023/08/16 08:42:08;;;;;;;2.95;2.58;;;;;;;-145.79;59.25;77118.69;5268409;28;20431;-78
2023/08/16 08:44:42;;;;;;;4.43;2.45;;;;;;;-145.79;59.08;77114.44;5264129;28;20033;-77
2023/08/16 08:47:13;;;;;;;7.22;2.80;;;;;;;-145.79;59.57;77097.50;5267947;28;20117;-76
2023/08/16 08:49:45;;;;;;;4.20;2.33;;;;;;;-145.79;59.67;77091.13;5274832;28;20112;-77
2023/08/16 08:52:17;;;;;;;5.32;3.38;;;;;;;-145.79;58.26;77110.22;5276469;28;20037;-78
2023/08/16 08:54:49;;;;;;;4.78;3.10;;;;;;;-145.79;58.09;77116.56;5260660;28;20088;-78
2023/08/16 08:57:21;;;;;;;5.90;3.45;;;;;;;-145.79;58.51;77118.69;5268347;28;20588;-78
2023/08/16 08:59:55;;;;;;;4.70;3.55;;;;;;;-145.79;58.57;77114.44;5263892;28;20549;-78
2023/08/16 09:02:30;;;;;;;4.05;3.25;;;;;;;-145.79;58.40;77112.31;5266806;28;20044;-78
2023/08/16 09:05:05;;;;;;;5.78;3.17;;;;;;;-145.79;58.21;77108.09;5253035;28;20099;-77
2023/08/16 09:07:39;;;;;;;4.18;2.90;;;;;;;-145.79;58.83;77097.50;5274672;28;20483;-78
2023/08/16 09:10:11;;;;;;;4.53;2.88;;;;;;;-145.79;58.12;77097.50;5271734;28;20024;-77
2023/08/16 09:12:43;;;;;;;5.55;4.00;;;;;;;-145.79;58.06;77099.63;5263536;28;20044;-77
2023/08/16 09:15:14;;;;;;;7.05;3.47;;;;;;;-145.79;57.69;77101.72;5263105;28;20025;-77
2023/08/16 09:17:45;;;;;;;4.90;3.17;;;;;;;-145.79;58.05;77099.63;5264992;28;20345;-77
2023/08/16 09:20:18;;;;;;;6.90;4.57;;;;;;;-145.79;58.28;77093.25;5267319;28;20036;-78
2023/08/16 09:22:49;;;;;;;4.40;2.85;;;;;;;-145.79;57.98;77086.91;5265783;28;20192;-78
2023/08/16 09:25:21;;;;;;;4.22;3.45;;;;;;;-145.79;58.40;77076.31;5269018;28;20033;-77
2023/08/16 09:27:52;;;;;;;5.30;3.28;;;;;;;-145.79;58.10;77084.78;5271376;28;20039;-77
2023/08/16 09:30:28;;;;;;;5.25;3.60;;;;;;;-145.79;58.52;77086.91;5268764;28;20467;-77
2023/08/16 09:33:00;;;;;;;7.47;4.00;;;;;;;-145.79;58.67;77076.31;5266721;28;20083;-78
2023/08/16 09:35:49;;;;;;;7.25;3.45;;;;;;;-145.79;59.08;77067.81;5270316;28;20028;-78
2023/08/16 09:38:21;;;;;;;5.13;2.90;;;;;;;-145.79;58.92;77050.88;5268574;28;20396;-78
2023/08/16 09:40:53;;;;;;;9.45;3.97;;;;;;;-145.79;58.52;77052.97;5269721;28;20033;-77
2023/08/16 09:43:24;;;;;;;6.85;3.20;;;;;;;-145.79;59.03;77042.38;5268142;28;20476;-75
2023/08/16 09:45:56;;;;;;;8.77;4.05;;;;;;;-145.79;58.87;77050.88;5261732;28;20112;-77
2023/08/16 09:48:27;;;;;;;7.20;3.70;;;;;;;-145.79;58.81;77023.31;5263109;28;20385;-77
2023/08/16 09:51:01;;;;;;;8.63;4.45;;;;;;;-145.79;58.92;77046.63;5263553;28;20071;-77
2023/08/16 09:53:33;;;;;;;4.93;4.53;;;;;;;-145.79;59.26;77033.91;5266003;28;20036;-76
2023/08/16 09:56:15;;;;;;;6.07;4.32;;;;;;;-145.79;58.95;77025.44;5266276;28;20024;-77
2023/08/16 09:58:47;;;;;;;5.82;4.47;;;;;;;-145.79;58.98;77029.66;5274946;28;20024;-77
2023/08/16 10:01:20;;;;;;;5.43;4.05;;;;;;;-145.79;58.78;77016.94;5274918;28;20025;-77
2023/08/16 10:03:53;;;;;;;10.02;4.60;;;;;;;-145.79;58.56;77021.19;5271999;28;20025;-77
2023/08/16 10:06:25;;;;;;;5.70;3.95;;;;;;;-145.79;58.48;77016.94;5261707;28;20026;-77
2023/08/16 10:08:57;;;;;;;6.10;4.30;;;;;;;-145.79;58.21;77016.94;5274028;28;20021;-77
2023/08/16 10:11:29;;;;;;;8.20;3.95;;;;;;;-145.79;58.29;77008.47;5267727;28;20484;-79
2023/08/16 10:14:02;;;;;;;7.75;4.45;;;;;;;-145.79;57.64;77006.34;5269928;28;20021;-81
2023/08/16 10:16:38;;;;;;;5.88;3.63;;;;;;;-145.79;57.66;77012.72;5270714;28;20075;-80
2023/08/16 10:19:13;;;;;;;5.50;3.60;;;;;;;-145.79;57.58;77008.47;5275272;28;20548;-81
2023/08/16 10:21:47;;;;;;;3.38;2.53;;;;;;;-145.79;57.92;76987.28;5273783;28;20499;-80
2023/08/16 10:24:20;;;;;;;5.90;3.47;;;;;;;-145.79;57.13;76993.63;5262884;28;20029;-79
2023/08/16 10:26:55;;;;;;;4.05;3.08;;;;;;;-145.79;57.06;76991.53;5278899;28;20105;-79
2023/08/16 10:29:32;;;;;;;25.10;23.00;;;;;;;-145.79;57.52;76989.41;5270222;28;20028;-80
2023/08/16 10:32:08;;;;;;;5.93;4.35;;;;;;;-145.79;58.15;76976.69;5274767;28;20499;-79
2023/08/16 10:34:40;;;;;;;7.20;5.43;;;;;;;-145.79;58.15;76976.69;5274471;28;20108;-81
2023/08/16 10:37:12;;;;;;;6.38;5.13;;;;;;;-145.79;58.54;76976.69;5273053;28;20106;-81
2023/08/16 10:39:50;;;;;;;6.43;4.40;;;;;;;-145.79;58.95;76961.84;5271297;28;20035;-80
2023/08/16 10:42:25;;;;;;;5.70;4.05;;;;;;;-145.79;58.75;76942.78;5272110;28;20060;-80
2023/08/16 10:44:57;;;;;;;5.38;4.05;;;;;;;-145.79;58.54;76944.91;5274480;28;20081;-80
2023/08/16 10:47:29;;;;;;;7.50;4.68;;;;;;;-145.79;58.18;76938.53;5267310;28;20113;-80
2023/08/16 10:50:00;;;;;;;6.38;5.13;;;;;;;-145.79;57.81;76944.91;5269780;28;20040;-80
2023/08/16 10:52:32;;;;;;;6.93;5.60;;;;;;;-145.79;57.99;76951.25;5268004;28;20013;-82
2023/08/16 10:55:04;;;;;;;4.85;4.35;;;;;;;-145.79;57.52;76932.19;5255257;28;20132;-81
2023/08/16 10:57:35;;;;;;;9.38;5.85;;;;;;;-145.79;57.05;76949.13;5269410;28;20041;-82
2023/08/16 11:00:09;;;;;;;7.00;4.55;;;;;;;-145.79;57.54;76936.41;5274414;28;20032;-80
2023/08/16 11:02:41;;;;;;;6.95;4.53;;;;;;;-145.79;57.09;76940.66;5271657;28;20499;-79
2023/08/16 11:05:19;;;;;;;5.47;4.13;;;;;;;-145.79;57.17;76923.69;5263391;28;20025;-79
2023/08/16 11:07:50;;;;;;;7.10;4.47;;;;;;;-145.79;57.43;76921.59;5273259;28;20029;-79
2023/08/16 11:10:32;;;;;;;9.00;4.40;;;;;;;-145.79;58.10;76917.34;5255115;28;20029;-79
2023/08/16 11:13:10;;;;;;;6.53;5.32;;;;;;;-145.79;57.67;76910.97;5274150;28;20406;-79
2023/08/16 11:15:42;;;;;;;6.32;4.88;;;;;;;-145.79;57.60;76906.75;5272639;28;20032;-79
2023/08/16 11:18:13;;;;;;;6.30;4.53;;;;;;;-145.79;57.36;76906.75;5270160;28;20472;-77
2023/08/16 11:20:48;;;;;;;8.30;5.10;;;;;;;-145.79;58.02;76894.03;5276485;28;20029;-78
2023/08/16 11:23:19;;;;;;;10.15;4.97;;;;;;;-145.79;57.31;76902.50;5273891;28;20440;-78
2023/08/16 11:25:59;;;;;;;6.90;5.03;;;;;;;-145.79;57.05;76904.63;5267159;28;20017;-77
2023/08/16 11:28:32;;;;;;;7.10;4.47;;;;;;;-145.79;56.99;76902.50;5274679;28;20508;-78
2023/08/16 11:31:05;;;;;;;7.18;4.35;;;;;;;-145.79;56.68;76889.78;5264990;28;20482;-79
2023/08/16 11:33:39;;;;;;;5.07;3.67;;;;;;;-145.79;56.09;76881.31;5281161;28;20028;-79
2023/08/16 11:36:13;;;;;;;4.57;2.83;;;;;;;-145.79;55.45;76860.13;5267521;28;20036;-79
2023/08/16 11:38:47;;;;;;;6.70;3.95;;;;;;;-145.79;54.78;76836.81;5265111;28;20271;-79
2023/08/16 11:41:21;;;;;;;7.00;3.87;;;;;;;-145.79;54.43;76845.28;5271936;28;20039;-77
2023/08/16 11:44:01;;;;;;;5.93;3.78;;;;;;;-145.79;55.10;76828.31;5274170;28;20619;-77
2023/08/16 11:46:48;;;;;;;7.53;4.57;;;;;;;-145.79;55.42;76834.69;5270116;28;20114;-78
2023/08/16 11:49:23;;;;;;;7.80;3.75;;;;;;;-145.79;55.28;76826.22;5270894;28;20051;-78
2023/08/16 11:51:55;;;;;;;4.95;3.80;;;;;;;-145.79;55.54;76811.38;5268427;28;20077;-77
2023/08/16 11:54:26;;;;;;;6.07;4.05;;;;;;;-145.79;55.14;76794.41;5261258;28;20029;-77
2023/08/16 11:56:58;;;;;;;5.63;3.85;;;;;;;-145.79;54.07;76792.31;5276333;28;20515;-76
2023/08/16 11:59:31;;;;;;;9.18;5.95;;;;;;;-145.79;54.77;76775.34;5270101;28;20541;-77
2023/08/16 12:02:06;;;;;;;6.72;4.07;;;;;;;-145.79;54.64;76775.34;5273674;28;20368;-74
2023/08/16 12:04:42;;;;;;;;;;;;;;;-145.79;53.75;76745.69;5262056;28;20384;-75
2023/08/16 12:07:13;;;;;;;7.00;4.32;;;;;;;-145.79;54.36;76758.38;5273820;28;19920;-79
2023/08/16 12:09:49;;;;;;;10.10;4.32;;;;;;;-145.79;54.48;76754.16;5267405;28;20029;-77
2023/08/16 12:12:20;;;;;;;8.23;5.00;;;;;;;-145.79;54.54;76779.59;5270968;28;20491;-77
2023/08/16 12:14:51;;;;;;;5.32;4.47;;;;;;;-145.79;54.90;76779.59;5274661;28;20021;-77
2023/08/16 12:17:23;;;;;;;7.10;4.50;;;;;;;-145.79;54.57;76790.19;5273353;28;20017;-75
2023/08/16 12:19:54;;;;;;;7.35;3.97;;;;;;;-145.79;54.29;76783.81;5274867;28;20484;-75
2023/08/16 12:22:25;;;;;;;6.13;4.15;;;;;;;-145.79;54.34;76764.75;5276155;28;20391;-78
2023/08/16 12:24:57;;;;;;;4.50;3.38;;;;;;;-145.79;54.37;76771.09;5275145;28;20540;-78
2023/08/16 12:27:28;;;;;;;4.85;3.05;;;;;;;-145.79;55.12;76762.63;5259804;28;20055;-76
2023/08/16 12:29:59;;;;;;;5.78;4.10;;;;;;;-145.79;53.83;76769.00;5274649;28;20032;-75
2023/08/16 12:32:31;;;;;;;9.40;5.35;;;;;;;-145.79;54.61;76766.88;5275747;28;20504;-75
2023/08/16 12:35:03;;;;;;;7.45;3.60;;;;;;;-145.79;54.40;76754.16;5270818;28;20021;-77
2023/08/16 12:37:35;;;;;;;6.05;4.07;;;;;;;-145.79;54.10;76749.91;5277202;28;20063;-76
2023/08/16 12:40:09;;;;;;;4.78;3.72;;;;;;;-145.79;54.38;76741.44;5275653;28;20020;-76
2023/08/16 12:42:40;;;;;;;5.40;3.88;;;;;;;-145.79;53.76;76754.16;5272433;28;20040;-76
2023/08/16 12:45:12;;;;;;;4.30;3.83;;;;;;;-145.79;53.66;76732.97;5269364;28;20034;-76
2023/08/16 12:47:43;;;;;;;5.53;3.70;;;;;;;-145.79;53.25;76711.75;5271668;28;20417;-75
2023/08/16 12:50:14;;;;;;;5.18;3.67;;;;;;;-145.79;52.52;76696.94;5272407;28;20047;-75
2023/08/16 12:52:46;;;;;;;6.07;2.92;;;;;;;-145.79;51.85;76679.97;5276755;28;20036;-76
2023/08/16 12:55:17;;;;;;;6.38;3.20;;;;;;;-145.79;51.81;76654.53;5276720;28;20024;-75
2023/08/16 12:57:50;;;;;;;5.03;3.03;;;;;;;-145.79;50.80;76663.03;5276442;28;20028;-79
2023/08/16 13:00:21;;;;;;;5.97;3.60;;;;;;;-145.79;51.08;76643.94;5267629;28;20029;-78
2023/08/16 13:03:01;;;;;;;5.47;3.10;;;;;;;-145.79;50.22;76635.47;5264664;28;20124;-79
2023/08/16 13:05:33;;;;;;;7.80;6.65;;;;;;;-145.79;50.60;76639.72;5275949;28;20383;-78
2023/08/16 13:08:05;;;;;;;5.28;4.03;;;;;;;-145.79;51.05;76618.53;5271499;28;20074;-80
2023/08/16 13:10:36;;;;;;;7.13;3.58;;;;;;;-145.79;50.86;76639.72;5270754;28;20040;-74
2023/08/16 13:13:08;;;;;;;5.78;3.28;;;;;;;-145.79;50.44;76643.94;5271774;28;20029;-74
2023/08/16 13:15:40;;;;;;;6.47;3.08;;;;;;;-145.79;50.66;76637.59;5272520;28;20024;-74
2023/08/16 13:18:11;;;;;;;3.45;2.75;;;;;;;-145.79;50.16;76586.72;5271520;28;20029;-72
2023/08/16 13:20:43;;;;;;;4.72;2.78;;;;;;;-145.79;50.19;76576.13;5259818;28;20112;-74
2023/08/16 13:23:14;;;;;;;3.28;2.75;;;;;;;-145.79;48.76;76574.00;5273889;28;20442;-74
2023/08/16 13:25:45;;;;;;;3.42;2.45;;;;;;;-145.79;48.24;76563.41;5275859;28;20033;-76
2023/08/16 13:28:17;;;;;;;5.88;3.30;;;;;;;-145.79;48.00;76565.53;5264616;28;20037;-74
2023/08/16 13:30:48;;;;;;;5.47;2.85;;;;;;;-145.79;47.82;76538.00;5271253;28;20711;-75
2023/08/16 13:33:19;;;;;;;8.57;2.83;;;;;;;-145.79;48.24;76538.00;5272183;28;20052;-75
2023/08/16 13:35:51;;;;;;;6.45;2.90;;;;;;;-145.79;48.52;76510.44;5270080;28;20159;-74
2023/08/16 13:38:22;;;;;;;8.60;3.10;;;;;;;-145.79;48.54;76535.88;5273178;28;20061;-75
2023/08/16 13:40:53;;;;;;;5.63;3.00;;;;;;;-145.79;48.64;76521.03;5273937;28;20029;-74
2023/08/16 13:43:25;;;;;;;3.88;2.72;;;;;;;-145.79;48.86;76516.78;5266720;28;20404;-74
2023/08/16 13:45:56;;;;;;;5.38;2.63;;;;;;;-145.79;47.44;76516.78;5272402;28;20021;-74
2023/08/16 13:48:28;;;;;;;6.78;4.65;;;;;;;-145.79;47.05;76504.09;5272916;28;20094;-72
2023/08/16 13:50:59;;;;;;;4.70;3.10;;;;;;;-145.79;46.91;76512.56;5271228;28;20048;-74
2023/08/16 13:53:31;;;;;;;5.90;2.60;;;;;;;-145.79;47.12;76529.50;5268264;28;20384;-75
2023/08/16 13:56:02;;;;;;;3.47;2.40;;;;;;;-145.79;46.91;76529.50;5275572;28;20025;-74
2023/08/16 13:58:34;;;;;;;6.32;5.72;;;;;;;-145.79;46.74;76535.88;5273513;28;20032;-74
2023/08/16 14:01:05;;;;;;;2.85;2.30;;;;;;;-145.79;47.41;76563.41;5267172;28;20033;-73
2023/08/16 14:03:37;;;;;;;5.47;2.40;;;;;;;-145.79;47.36;76559.19;5272818;28;20032;-75
2023/08/16 14:06:08;;;;;;;4.32;1.98;;;;;;;-145.79;47.75;76578.25;5270194;28;20017;-74
2023/08/16 14:08:39;;;;;;;4.20;2.53;;;;;;;-145.79;47.93;76574.00;5263236;28;20028;-73
2023/08/16 14:11:11;;;;;;;4.20;2.38;;;;;;;-145.79;47.94;76578.25;5262123;28;20028;-74
2023/08/16 14:13:43;;;;;;;3.83;2.65;;;;;;;-145.79;47.74;76588.84;5273590;28;20021;-74
2023/08/16 14:16:14;;;;;;;6.05;2.88;;;;;;;-145.79;48.33;76576.13;5267150;28;20066;-74
2023/08/16 14:18:45;;;;;;;3.80;2.25;;;;;;;-145.79;48.52;76590.97;5272421;28;20060;-74
2023/08/16 14:21:17;;;;;;;4.22;2.45;;;;;;;-145.79;48.92;76597.31;5265063;28;20042;-73
2023/08/16 14:23:49;;;;;;;15.35;13.43;;;;;;;-145.79;49.33;76582.50;5253134;28;20078;-73
2023/08/16 14:26:20;;;;;;;5.78;3.05;;;;;;;-145.79;49.95;76576.13;5275257;28;20032;-74
2023/08/16 14:28:51;;;;;;;4.20;2.65;;;;;;;-145.79;50.22;76595.22;5278354;28;20107;-74
2023/08/16 14:31:23;;;;;;;4.75;2.70;;;;;;;-145.79;50.37;76580.38;5265195;28;20565;-73
2023/08/16 14:33:54;;;;;;;3.83;2.85;;;;;;;-145.79;50.06;76580.38;5274072;28;20502;-73
2023/08/16 14:36:25;;;;;;;3.67;2.50;;;;;;;-145.79;49.78;76576.13;5270966;28;20112;-73
2023/08/16 14:38:57;;;;;;;6.22;4.43;;;;;;;-145.79;49.59;76597.31;5270609;28;20027;-73
2023/08/16 14:41:29;;;;;;;3.70;3.40;;;;;;;-145.79;49.62;76554.94;5281373;28;20051;-73
2023/08/16 14:44:01;;;;;;;5.55;2.58;;;;;;;-145.79;49.44;76544.34;5265692;28;20104;-74
2023/08/16 14:46:32;;;;;;;5.60;2.80;;;;;;;-145.79;48.62;76548.59;5273691;28;20535;-74
2023/08/16 14:49:06;;;;;;;6.53;2.85;;;;;;;-145.79;48.78;76567.66;5272299;28;20023;-75
2023/08/16 14:51:38;;;;;;;3.65;2.50;;;;;;;-145.79;49.07;76567.66;5271018;28;20029;-72
2023/08/16 14:54:09;;;;;;;3.75;2.35;;;;;;;-145.79;49.64;76597.31;5270583;28;20029;-74
2023/08/16 14:56:40;;;;;;;5.88;3.05;;;;;;;-145.79;50.39;76597.31;5273211;28;20024;-74
2023/08/16 14:59:12;;;;;;;7.65;3.15;;;;;;;-145.79;50.83;76624.88;5267960;28;20048;-74
2023/08/16 15:01:43;;;;;;;6.15;3.78;;;;;;;-145.79;51.46;76618.53;5271692;28;20082;-73
2023/08/16 15:04:14;;;;;;;6.90;6.13;;;;;;;-145.79;51.20;76590.97;5273375;28;20032;-74
2023/08/16 15:06:46;;;;;;;3.22;2.63;;;;;;;-145.79;51.38;76593.09;5271959;28;20028;-73
2023/08/16 15:09:17;;;;;;;3.53;2.63;;;;;;;-145.79;51.22;76584.59;5265823;28;20033;-74
2023/08/16 15:11:48;;;;;;;3.67;2.53;;;;;;;-145.79;51.03;76588.84;5272224;28;20036;-74
2023/08/16 15:14:20;;;;;;;5.43;3.47;;;;;;;-145.79;50.94;76588.84;5274874;28;20028;-75
2023/08/16 15:16:51;;;;;;;3.63;2.63;;;;;;;-145.79;51.25;76571.91;5271657;28;20404;-73
2023/08/16 15:19:22;;;;;;;3.15;2.60;;;;;;;-145.79;51.16;76588.84;5273493;28;20020;-75
2023/08/16 15:21:54;;;;;;;3.88;3.45;;;;;;;-145.79;50.92;76599.44;5265674;28;20405;-75
2023/08/16 15:24:31;;;;;;;4.68;2.80;;;;;;;-145.79;51.09;76605.81;5273415;28;20108;-75
2023/08/16 15:27:02;;;;;;;3.30;2.45;;;;;;;-145.79;50.78;76588.84;5271752;28;20039;-75
2023/08/16 15:29:34;;;;;;;3.75;2.90;;;;;;;-145.79;50.50;76597.31;5267350;28;20368;-74
2023/08/16 15:32:05;;;;;;;5.18;2.92;;;;;;;-145.79;50.94;76586.72;5266798;28;20578;-76
2023/08/16 15:34:37;;;;;;;6.55;2.92;;;;;;;-145.79;50.50;76595.22;5274370;28;20091;-75
2023/08/16 15:37:08;;;;;;;4.65;2.70;;;;;;;-145.79;50.75;76588.84;5268501;28;20477;-75
2023/08/16 15:39:40;;;;;;;4.00;2.90;;;;;;;-145.79;50.79;76597.31;5275969;28;20373;-74
2023/08/16 15:42:13;;;;;;;3.53;3.22;;;;;;;-145.79;50.92;76588.84;5271442;28;20025;-75
2023/08/16 15:44:44;;;;;;;4.57;2.38;;;;;;;-145.79;50.87;76588.84;5276280;28;20021;-75
2023/08/16 15:47:15;;;;;;;3.75;2.30;;;;;;;-145.79;50.58;76607.91;5277164;28;20051;-74
2023/08/16 15:49:47;;;;;;;3.63;2.72;;;;;;;-145.79;50.92;76614.28;5273797;28;20131;-72
2023/08/16 15:52:20;;;;;;;6.60;2.85;;;;;;;-145.79;51.01;76614.28;5268425;28;20020;-76
2023/08/16 15:54:53;;;;;;;5.43;2.80;;;;;;;-145.79;51.05;76618.53;5299477;28;20036;-76
2023/08/16 15:57:26;;;;;;;3.38;2.55;;;;;;;-145.79;51.22;76616.41;5270685;28;20028;-76
2023/08/16 15:59:58;;;;;;;3.50;2.83;;;;;;;-145.79;51.43;76605.81;5269174;28;20032;-75
2023/08/16 16:02:29;;;;;;;4.05;3.17;;;;;;;-145.79;51.46;76616.41;5273974;28;20017;-75
2023/08/16 16:05:01;;;;;;;4.35;2.67;;;;;;;-145.79;51.25;76612.16;5277665;28;20416;-76
2023/08/16 16:07:32;;;;;;;4.03;2.38;;;;;;;-145.79;51.58;76612.16;5276879;28;20058;-78
2023/08/16 16:10:04;;;;;;;5.05;3.25;;;;;;;-145.79;51.37;76624.88;5270323;28;20056;-79
2023/08/16 16:12:35;;;;;;;4.65;3.33;;;;;;;-145.79;51.50;76622.75;5277260;28;20612;-76
2023/08/16 16:15:07;;;;;;;5.15;2.90;;;;;;;-145.79;51.58;76639.72;5271618;28;20052;-75
2023/08/16 16:17:38;;;;;;;3.70;3.05;;;;;;;-145.79;52.22;76639.72;5269770;28;20025;-75
2023/08/16 16:20:10;;;;;;;4.85;3.05;;;;;;;-145.79;52.10;76635.47;5276731;28;20059;-76
2023/08/16 16:22:42;;;;;;;3.40;2.95;;;;;;;-145.79;52.33;76622.75;5277422;28;20048;-76
2023/08/16 16:25:13;;;;;;;52.58;47.70;;;;;;;-145.79;52.36;76639.72;5273487;28;20021;-76
2023/08/16 16:27:44;;;;;;;4.35;2.92;;;;;;;-145.79;52.79;76643.94;5272974;28;20115;-76
2023/08/16 16:30:16;;;;;;;3.80;2.80;;;;;;;-145.79;53.00;76663.03;5276450;28;20476;-76
2023/08/16 16:32:48;;;;;;;6.18;3.42;;;;;;;-145.79;53.33;76669.38;5277109;28;20042;-76
2023/08/16 16:35:19;;;;;;;4.47;2.70;;;;;;;-145.79;53.43;76669.38;5274504;28;20461;-75
2023/08/16 16:37:51;;;;;;;5.15;2.53;;;;;;;-145.79;53.31;76665.16;5259957;28;20104;-74
2023/08/16 16:40:22;;;;;;;4.30;3.22;;;;;;;-145.79;53.39;76663.03;5273220;28;20024;-73
2023/08/16 16:42:54;;;;;;;3.00;2.47;;;;;;;-145.79;53.48;76669.38;5269945;28;20033;-74
2023/08/16 16:45:26;;;;;;;3.92;2.85;;;;;;;-145.79;53.86;76686.34;5263128;28;20046;-75
2023/08/16 16:47:57;;;;;;;6.95;2.97;;;;;;;-145.79;53.87;76660.91;5253855;28;20029;-74
2023/08/16 16:50:28;;;;;;;6.15;3.17;;;;;;;-145.79;53.74;76665.16;5271585;28;20048;-74
2023/08/16 16:53:00;;;;;;;5.65;3.00;;;;;;;-145.79;54.02;76669.38;5269805;28;20025;-74
2023/08/16 16:55:31;;;;;;;3.63;2.70;;;;;;;-145.79;53.60;76675.75;5261793;28;20021;-75
